Mansfield, Arkansas
Current Conditions -  °F | °C
As of 7:03 AM on Saturday 22 Nov 2014 (Local Time) from KFSM Reporting Station
Overcast Overcast  
Wind Chill: 51°   Ceiling: 3000
Heat Index: 51°   Visibility: 7mi
Dew Point: 48°   Wind: 7mph
Humidity: 89%   Direction: 50°NE
Pressure: 30.11"   Gusts: NA
Location:  35.06°N, 94.25°W
Report Text: KFSM 221303Z 05006KT 7SM BKN030 OVC036 11/09 A3011 RMK AO2 T01060089
Loading
Personal Weather Stations






























Interactive Weather Map New forecast layout! Learn more

10-Day Weather Forecast

Advertisements
Track Severe Weather on mobile